createdAt,value
2022-09-13T00:01:26.940Z,13.96
2022-09-13T00:03:53.716Z,13.90
2022-09-13T00:06:22.632Z,13.84
2022-09-13T00:08:49.847Z,13.80
2022-09-13T00:11:23.462Z,13.79
2022-09-13T00:13:50.940Z,13.75
2022-09-13T00:16:20.253Z,13.73
2022-09-13T00:18:47.103Z,13.71
2022-09-13T00:21:16.749Z,13.69
2022-09-13T00:23:49.123Z,13.66
2022-09-13T00:26:23.464Z,13.64
2022-09-13T00:28:51.899Z,13.61
2022-09-13T00:31:19.839Z,13.58
2022-09-13T00:33:46.929Z,13.57
2022-09-13T00:36:17.455Z,13.53
2022-09-13T00:38:44.518Z,13.53
2022-09-13T00:41:14.509Z,13.52
2022-09-13T00:43:44.149Z,13.52
2022-09-13T00:46:16.632Z,13.48
2022-09-13T00:48:46.346Z,13.45
2022-09-13T00:51:13.981Z,13.45
2022-09-13T00:53:47.815Z,13.42
2022-09-13T00:56:45.780Z,13.38
2022-09-13T00:59:39.508Z,13.35
2022-09-13T01:02:06.542Z,13.34
2022-09-13T01:04:37.107Z,13.32
2022-09-13T01:07:08.725Z,13.30
2022-09-13T01:09:44.026Z,13.34
2022-09-13T01:12:38.089Z,13.33
2022-09-13T01:15:06.609Z,13.29
2022-09-13T01:17:35.374Z,13.28
2022-09-13T01:20:04.433Z,13.27
2022-09-13T01:22:57.172Z,13.25
2022-09-13T01:25:43.919Z,13.20
2022-09-13T01:28:35.036Z,13.14
2022-09-13T01:31:18.837Z,13.12
2022-09-13T01:34:07.012Z,13.13
2022-09-13T01:36:42.632Z,13.08
2022-09-13T01:39:17.801Z,13.06
2022-09-13T01:42:11.586Z,13.07
2022-09-13T01:45:02.371Z,13.04
2022-09-13T01:47:48.189Z,13.03
2022-09-13T01:50:26.649Z,13.07
2022-09-13T01:53:02.006Z,13.06
2022-09-13T01:55:54.680Z,13.05
2022-09-13T01:58:29.308Z,13.06
2022-09-13T02:01:24.826Z,13.03
2022-09-13T02:04:08.619Z,13.00
2022-09-13T02:06:45.776Z,13.01
2022-09-13T02:09:21.679Z,13.01
2022-09-13T02:11:54.832Z,13.01
2022-09-13T02:14:58.972Z,12.99
2022-09-13T02:17:29.960Z,12.96
2022-09-13T02:20:21.428Z,12.99
2022-09-13T02:22:57.275Z,12.82
2022-09-13T02:25:26.716Z,12.66
2022-09-13T02:28:02.075Z,12.76
2022-09-13T02:30:31.705Z,12.83
2022-09-13T02:33:13.159Z,12.83
2022-09-13T02:35:53.845Z,12.85
2022-09-13T02:38:30.370Z,12.87
2022-09-13T02:41:12.079Z,12.89
2022-09-13T02:43:44.849Z,12.88
2022-09-13T02:46:27.776Z,12.83
2022-09-13T02:49:08.551Z,12.79
2022-09-13T02:51:55.467Z,12.77
2022-09-13T02:54:32.880Z,12.63
2022-09-13T02:57:07.525Z,12.44
2022-09-13T02:59:34.595Z,12.53
2022-09-13T03:02:08.236Z,12.58
2022-09-13T03:04:35.467Z,12.55
2022-09-13T03:07:07.119Z,12.59
2022-09-13T03:09:34.400Z,12.61
2022-09-13T03:12:16.156Z,12.43
2022-09-13T03:14:56.772Z,12.30
2022-09-13T03:17:34.457Z,12.39
2022-09-13T03:20:09.457Z,12.43
2022-09-13T03:23:11.980Z,12.43
2022-09-13T03:26:08.830Z,12.43
2022-09-13T03:29:12.351Z,12.44
2022-09-13T03:31:56.860Z,12.32
2022-09-13T03:34:59.243Z,12.30
2022-09-13T03:37:38.596Z,12.39
2022-09-13T03:40:12.842Z,12.45
2022-09-13T03:42:53.508Z,12.49
2022-09-13T03:45:26.395Z,12.37
2022-09-13T03:47:55.157Z,12.30
2022-09-13T03:50:25.121Z,12.43
2022-09-13T03:52:57.553Z,12.53
2022-09-13T03:55:26.026Z,12.57
2022-09-13T03:57:52.782Z,12.39
2022-09-13T04:00:20.231Z,12.39
2022-09-13T04:02:46.956Z,12.53
2022-09-13T04:05:13.687Z,12.54
2022-09-13T04:07:40.340Z,12.57
2022-09-13T04:10:10.721Z,12.49
2022-09-13T04:12:41.407Z,12.35
2022-09-13T04:15:09.087Z,12.43
2022-09-13T04:17:36.561Z,12.50
2022-09-13T04:20:04.561Z,12.58
2022-09-13T04:22:31.653Z,12.47
2022-09-13T04:25:02.506Z,12.35
2022-09-13T04:27:29.536Z,12.45
2022-09-13T04:29:56.170Z,12.51
2022-09-13T04:32:22.833Z,12.56
2022-09-13T04:34:51.408Z,12.52
2022-09-13T04:37:18.016Z,12.39
2022-09-13T04:39:44.629Z,12.49
2022-09-13T04:42:14.141Z,12.56
2022-09-13T04:44:40.934Z,12.59
2022-09-13T04:47:08.324Z,12.42
2022-09-13T04:49:35.020Z,12.37
2022-09-13T04:52:01.827Z,12.46
2022-09-13T04:54:28.455Z,12.53
2022-09-13T04:56:55.265Z,12.58
2022-09-13T04:59:22.031Z,12.42
2022-09-13T05:01:48.700Z,12.45
2022-09-13T05:04:15.514Z,12.51
2022-09-13T05:06:44.503Z,12.55
2022-09-13T05:09:14.380Z,12.49
2022-09-13T05:11:44.189Z,12.37
2022-09-13T05:14:12.072Z,12.43
2022-09-13T05:16:38.771Z,12.48
2022-09-13T05:19:05.450Z,12.53
2022-09-13T05:21:32.123Z,12.49
2022-09-13T05:24:02.036Z,12.34
2022-09-13T05:26:33.716Z,12.41
2022-09-13T05:29:00.719Z,12.50
2022-09-13T05:31:40.175Z,12.53
2022-09-13T05:34:10.686Z,12.52
2022-09-13T05:36:37.975Z,12.53
2022-09-13T05:39:29.772Z,12.35
2022-09-13T05:41:54.442Z,12.39
2022-09-13T05:44:21.069Z,12.43
2022-09-13T05:46:49.054Z,12.49
2022-09-13T05:49:15.801Z,12.50
2022-09-13T05:51:42.405Z,12.54
2022-09-13T05:54:12.140Z,12.54
2022-09-13T05:56:38.792Z,12.55
2022-09-13T05:59:05.433Z,12.59
2022-09-13T06:01:32.291Z,12.55
2022-09-13T06:03:59.552Z,12.42
2022-09-13T06:06:26.875Z,12.48
2022-09-13T06:08:57.565Z,12.40
2022-09-13T06:11:26.230Z,12.43
2022-09-13T06:13:53.603Z,12.44
2022-09-13T06:16:21.021Z,12.38
2022-09-13T06:18:49.193Z,12.47
2022-09-13T06:21:28.899Z,12.34
2022-09-13T06:23:57.209Z,12.42
2022-09-13T06:26:27.051Z,12.38
2022-09-13T06:28:56.836Z,12.38
2022-09-13T06:31:25.535Z,12.43
2022-09-13T06:33:57.842Z,12.35
2022-09-13T06:36:26.937Z,12.45
2022-09-13T06:38:55.952Z,12.41
2022-09-13T06:41:25.127Z,12.44
2022-09-13T06:43:57.739Z,12.45
2022-09-13T06:46:25.605Z,12.45
2022-09-13T06:48:52.876Z,12.57
2022-09-13T06:51:24.727Z,12.49
2022-09-13T06:53:52.281Z,12.51
2022-09-13T06:56:21.619Z,12.59
2022-09-13T06:58:50.198Z,12.47
2022-09-13T07:01:25.377Z,12.55
2022-09-13T07:04:04.608Z,12.51
2022-09-13T07:06:34.724Z,12.47
2022-09-13T07:09:03.718Z,12.58
2022-09-13T07:11:39.128Z,12.45
2022-09-13T07:14:06.988Z,12.47
2022-09-13T07:16:36.764Z,12.50
2022-09-13T07:19:06.720Z,12.41
2022-09-13T07:21:34.985Z,12.51
2022-09-13T07:24:02.661Z,12.50
2022-09-13T07:26:33.743Z,12.42
2022-09-13T07:29:05.221Z,12.48
2022-09-13T07:31:36.432Z,12.47
2022-09-13T07:34:08.974Z,12.42
2022-09-13T07:36:38.543Z,12.52
2022-09-13T07:39:08.231Z,12.44
2022-09-13T07:41:39.762Z,12.44
2022-09-13T07:44:06.839Z,12.49
2022-09-13T07:46:41.916Z,12.40
2022-09-13T07:49:08.567Z,12.45
2022-09-13T07:51:37.465Z,12.46
2022-09-13T07:54:06.724Z,12.40
2022-09-13T07:56:38.445Z,12.44
2022-09-13T07:59:07.568Z,12.45
2022-09-13T08:01:40.285Z,12.44
2022-09-13T08:04:14.474Z,12.53
2022-09-13T08:06:45.740Z,12.52
2022-09-13T08:09:15.111Z,12.46
2022-09-13T08:11:48.851Z,12.57
2022-09-13T08:14:17.835Z,12.51
2022-09-13T08:16:45.232Z,12.46
2022-09-13T08:19:19.106Z,12.57
2022-09-13T08:21:46.759Z,12.56
2022-09-13T08:24:22.109Z,12.50
2022-09-13T08:26:52.231Z,12.61
2022-09-13T08:29:19.477Z,12.57
2022-09-13T08:31:46.090Z,12.54
2022-09-13T08:34:15.107Z,12.64
2022-09-13T08:36:41.910Z,12.60
2022-09-13T08:39:09.767Z,12.55
2022-09-13T08:41:44.976Z,12.62
2022-09-13T08:44:17.768Z,12.60
2022-09-13T08:46:47.758Z,12.51
2022-09-13T08:49:23.990Z,12.60
2022-09-13T08:52:01.479Z,12.64
2022-09-13T08:54:28.595Z,12.53
2022-09-13T08:57:24.026Z,12.57
2022-09-13T09:00:20.627Z,12.60
2022-09-13T09:03:02.666Z,12.58
2022-09-13T09:05:35.134Z,12.50
2022-09-13T09:08:31.496Z,12.64
2022-09-13T09:11:03.787Z,12.71
2022-09-13T09:13:35.564Z,12.76
2022-09-13T09:16:07.471Z,12.67
2022-09-13T09:18:43.488Z,12.77
2022-09-13T09:21:18.011Z,12.81
2022-09-13T09:23:56.090Z,12.79
2022-09-13T09:26:26.817Z,12.82
2022-09-13T09:28:58.888Z,12.90
2022-09-13T09:31:42.419Z,12.90
2022-09-13T09:34:26.640Z,12.84
2022-09-13T09:37:12.212Z,12.71
2022-09-13T09:39:40.954Z,12.81
2022-09-13T09:42:18.517Z,12.86
2022-09-13T09:45:23.408Z,12.94
2022-09-13T09:47:51.775Z,12.95
2022-09-13T09:50:28.419Z,12.90
2022-09-13T09:53:05.071Z,12.78
2022-09-13T09:56:16.755Z,12.94
2022-09-13T09:58:45.332Z,12.98
2022-09-13T10:01:37.731Z,13.02
2022-09-13T10:04:20.036Z,13.02
2022-09-13T10:06:47.308Z,13.04
2022-09-13T10:09:13.847Z,13.07
2022-09-13T10:11:49.192Z,13.06
2022-09-13T10:14:34.732Z,13.08
2022-09-13T10:17:27.695Z,13.08
2022-09-13T10:20:02.093Z,12.94
2022-09-13T10:22:31.357Z,13.04
2022-09-13T10:25:23.056Z,13.15
2022-09-13T10:27:54.260Z,13.18
2022-09-13T10:30:46.474Z,13.23
2022-09-13T10:33:36.338Z,13.23
2022-09-13T10:36:48.250Z,13.28
2022-09-13T10:39:20.328Z,13.30
2022-09-13T10:42:06.611Z,13.37
2022-09-13T10:44:53.841Z,13.38
2022-09-13T10:47:24.023Z,13.40
2022-09-13T10:49:56.276Z,13.42
2022-09-13T10:52:53.052Z,13.53
2022-09-13T10:55:20.249Z,13.60
2022-09-13T10:57:55.342Z,13.68
2022-09-13T11:00:31.268Z,13.74
2022-09-13T11:03:16.788Z,13.80
2022-09-13T11:05:54.981Z,13.87
2022-09-13T11:08:35.736Z,13.91
2022-09-13T11:11:23.036Z,13.90
2022-09-13T11:14:20.425Z,13.87
2022-09-13T11:17:03.867Z,13.86
2022-09-13T11:19:45.549Z,13.89
2022-09-13T11:22:50.974Z,13.93
2022-09-13T11:25:40.564Z,13.92
2022-09-13T11:28:40.433Z,13.93
2022-09-13T11:31:57.437Z,13.94
2022-09-13T11:34:39.338Z,13.96
2022-09-13T11:37:14.951Z,14.17
2022-09-13T11:39:58.079Z,14.35
2022-09-13T11:42:54.112Z,14.34
2022-09-13T11:45:32.620Z,14.27
2022-09-13T11:48:44.417Z,14.21
2022-09-13T11:51:49.079Z,14.08
2022-09-13T11:54:43.301Z,14.00
2022-09-13T11:57:19.791Z,13.94
2022-09-13T11:59:59.504Z,13.97
2022-09-13T12:02:47.452Z,13.93
2022-09-13T12:05:24.371Z,13.93
2022-09-13T12:08:01.084Z,14.01
2022-09-13T12:10:40.796Z,14.07
2022-09-13T12:13:15.421Z,14.15
2022-09-13T12:15:48.453Z,14.24
2022-09-13T12:18:29.908Z,14.31
2022-09-13T12:21:10.497Z,14.39
2022-09-13T12:23:40.692Z,14.54
2022-09-13T12:26:15.140Z,14.69
2022-09-13T12:29:03.134Z,14.84
2022-09-13T12:31:32.147Z,14.92
2022-09-13T12:34:00.792Z,14.99
2022-09-13T12:37:21.285Z,15.01
2022-09-13T12:40:02.650Z,14.94
2022-09-13T12:42:44.190Z,14.92
2022-09-13T12:45:41.828Z,14.86
2022-09-13T12:48:11.518Z,14.76
2022-09-13T12:50:46.564Z,14.69
2022-09-13T12:53:37.584Z,14.67
2022-09-13T12:56:37.154Z,14.66
2022-09-13T12:59:23.009Z,14.71
2022-09-13T13:01:52.269Z,14.80
2022-09-13T13:04:21.773Z,14.96
2022-09-13T13:06:51.758Z,15.17
2022-09-13T13:09:39.059Z,15.27
2022-09-13T13:12:06.246Z,15.37
2022-09-13T13:14:39.109Z,15.48
2022-09-13T13:17:43.261Z,15.69
2022-09-13T13:20:41.238Z,15.74
2022-09-13T13:23:20.001Z,15.76
2022-09-13T13:26:11.390Z,15.72
2022-09-13T13:28:52.125Z,15.69
2022-09-13T13:31:24.765Z,15.64
2022-09-13T13:34:02.108Z,15.61
2022-09-13T13:36:53.077Z,15.54
2022-09-13T13:39:28.207Z,15.57
2022-09-13T13:41:58.841Z,15.66
2022-09-13T13:44:25.579Z,15.71
2022-09-13T13:47:17.292Z,15.77
2022-09-13T13:49:46.329Z,15.75
2022-09-13T13:52:16.816Z,15.73
2022-09-13T13:54:46.041Z,15.65
2022-09-13T13:57:29.892Z,15.54
2022-09-13T14:00:17.933Z,15.45
2022-09-13T14:02:50.560Z,15.42
2022-09-13T14:05:22.560Z,15.43
2022-09-13T14:08:25.932Z,15.38
2022-09-13T14:11:34.473Z,15.39
2022-09-13T14:14:23.618Z,15.36
2022-09-13T14:17:01.878Z,15.40
2022-09-13T14:19:41.551Z,15.42
2022-09-13T14:22:16.040Z,15.26
2022-09-13T14:24:46.362Z,14.99
2022-09-13T14:27:20.618Z,14.97
2022-09-13T14:29:51.148Z,14.98
2022-09-13T14:32:35.835Z,14.99
2022-09-13T14:35:07.236Z,15.03
2022-09-13T14:37:38.637Z,15.07
2022-09-13T14:40:10.124Z,15.08
2022-09-13T14:42:43.176Z,15.09
2022-09-13T14:45:25.502Z,15.07
2022-09-13T14:48:14.944Z,15.01
2022-09-13T14:51:20.948Z,14.96
2022-09-13T14:53:52.071Z,14.90
2022-09-13T14:56:53.432Z,14.95
2022-09-13T14:59:32.131Z,15.11
2022-09-13T15:02:05.359Z,15.24
2022-09-13T15:04:32.132Z,15.28
2022-09-13T15:07:36.327Z,15.32
2022-09-13T15:10:09.960Z,15.53
2022-09-13T15:12:37.275Z,15.61
2022-09-13T15:15:19.224Z,15.55
2022-09-13T15:18:16.111Z,15.60
2022-09-13T15:21:17.025Z,15.70
2022-09-13T15:23:51.438Z,15.73
2022-09-13T15:26:21.402Z,15.73
2022-09-13T15:28:54.131Z,15.77
2022-09-13T15:31:31.748Z,15.73
2022-09-13T15:34:24.320Z,15.85
2022-09-13T15:37:14.870Z,15.82
2022-09-13T15:40:02.286Z,15.74
2022-09-13T15:42:28.990Z,15.77
2022-09-13T15:44:55.532Z,15.71
2022-09-13T15:47:22.223Z,15.53
2022-09-13T15:49:51.097Z,15.39
2022-09-13T15:52:19.964Z,15.26
2022-09-13T15:54:49.496Z,15.18
2022-09-13T15:57:28.208Z,15.15
2022-09-13T15:59:56.867Z,15.26
2022-09-13T16:02:26.367Z,15.27
2022-09-13T16:04:53.881Z,15.37
2022-09-13T16:07:21.125Z,15.48
2022-09-13T16:09:48.335Z,15.61
2022-09-13T16:12:15.105Z,15.69
2022-09-13T16:14:41.826Z,15.69
2022-09-13T16:17:21.361Z,15.55
2022-09-13T16:19:48.341Z,15.40
2022-09-13T16:22:16.433Z,15.26
2022-09-13T16:24:43.772Z,15.16
2022-09-13T16:27:13.600Z,15.00
2022-09-13T16:29:41.116Z,14.87
2022-09-13T16:32:09.823Z,14.75
2022-09-13T16:34:36.416Z,14.60
2022-09-13T16:37:03.028Z,14.58
2022-09-13T16:39:31.643Z,14.45
2022-09-13T16:42:00.168Z,14.39
2022-09-13T16:44:28.832Z,13.91
2022-09-13T16:46:55.474Z,13.90
2022-09-13T16:49:22.177Z,13.97
2022-09-13T16:51:49.020Z,13.89
2022-09-13T16:54:15.656Z,13.74
2022-09-13T16:56:42.583Z,13.70
2022-09-13T16:59:09.427Z,13.71
2022-09-13T17:01:36.279Z,13.63
2022-09-13T17:04:03.641Z,13.64
2022-09-13T17:06:30.444Z,13.72
2022-09-13T17:09:02.520Z,13.70
2022-09-13T17:11:38.956Z,13.62
2022-09-13T17:14:07.729Z,13.57
2022-09-13T17:16:38.090Z,13.57
2022-09-13T17:19:08.763Z,13.60
2022-09-13T17:21:35.865Z,13.60
2022-09-13T17:24:02.932Z,13.61
2022-09-13T17:26:29.687Z,13.58
2022-09-13T17:28:57.331Z,13.54
2022-09-13T17:31:24.335Z,13.41
2022-09-13T17:33:51.181Z,13.42
2022-09-13T17:36:17.987Z,13.39
2022-09-13T17:38:45.126Z,13.42
2022-09-13T17:41:14.513Z,13.36
2022-09-13T17:43:43.141Z,13.30
2022-09-13T17:46:16.258Z,13.26
2022-09-13T17:48:46.017Z,13.20
2022-09-13T17:51:15.426Z,13.14
2022-09-13T17:53:47.736Z,13.12
2022-09-13T17:56:23.825Z,13.10
2022-09-13T17:58:50.460Z,13.09
2022-09-13T18:01:17.393Z,13.04
2022-09-13T18:03:44.284Z,12.97
2022-09-13T18:06:11.885Z,12.90
2022-09-13T18:08:39.414Z,12.89
2022-09-13T18:11:14.229Z,12.88
2022-09-13T18:13:43.043Z,12.93
2022-09-13T18:16:21.772Z,12.94
2022-09-13T18:18:50.153Z,12.89
2022-09-13T18:21:19.270Z,12.85
2022-09-13T18:23:52.264Z,12.90
2022-09-13T18:26:21.301Z,12.89
2022-09-13T18:28:53.668Z,12.92
2022-09-13T18:31:20.565Z,12.93
2022-09-13T18:33:47.965Z,12.92
2022-09-13T18:36:16.816Z,12.94
2022-09-13T18:38:45.956Z,12.97
2022-09-13T18:41:14.958Z,13.00
2022-09-13T18:43:45.826Z,12.94
2022-09-13T18:46:19.404Z,12.88
2022-09-13T18:48:48.622Z,12.85
2022-09-13T18:51:17.931Z,12.88
2022-09-13T18:53:45.654Z,12.91
2022-09-13T18:56:15.405Z,12.88
2022-09-13T18:58:43.392Z,12.86
2022-09-13T19:01:15.563Z,12.86
2022-09-13T19:03:49.380Z,12.80
2022-09-13T19:06:24.833Z,12.73
2022-09-13T19:08:53.636Z,12.70
2022-09-13T19:11:45.190Z,12.66
2022-09-13T19:14:10.184Z,12.62
2022-09-13T19:16:37.000Z,12.63
2022-09-13T19:19:05.426Z,12.66
2022-09-13T19:21:33.209Z,12.66
2022-09-13T19:24:06.571Z,12.63
2022-09-13T19:26:39.368Z,12.61
2022-09-13T19:29:08.940Z,12.59
2022-09-13T19:31:39.145Z,12.51
2022-09-13T19:34:09.228Z,12.50
2022-09-13T19:36:38.319Z,12.45
2022-09-13T19:39:06.353Z,12.45
2022-09-13T19:41:33.611Z,12.47
2022-09-13T19:44:01.843Z,12.43
2022-09-13T19:46:31.939Z,12.42
2022-09-13T19:48:59.669Z,12.38
2022-09-13T19:51:33.398Z,12.40
2022-09-13T19:54:00.939Z,12.41
2022-09-13T19:56:32.970Z,12.31
2022-09-13T19:59:00.780Z,12.24
2022-09-13T20:01:36.533Z,12.25
2022-09-13T20:04:08.231Z,12.24
2022-09-13T20:06:44.371Z,12.21
2022-09-13T20:09:12.713Z,12.22
2022-09-13T20:11:42.622Z,12.20
2022-09-13T20:14:09.752Z,12.19
2022-09-13T20:16:40.493Z,12.21
2022-09-13T20:19:29.596Z,12.16
2022-09-13T20:21:55.633Z,12.07
2022-09-13T20:24:23.156Z,12.07
2022-09-13T20:26:52.100Z,12.10
2022-09-13T20:29:19.048Z,12.02
2022-09-13T20:31:45.786Z,12.01
2022-09-13T20:34:15.199Z,11.99
2022-09-13T20:36:44.460Z,11.97
2022-09-13T20:39:11.613Z,12.02
2022-09-13T20:41:38.476Z,12.01
2022-09-13T20:44:05.506Z,11.96
2022-09-13T20:46:32.286Z,11.91
2022-09-13T20:48:59.465Z,11.92
2022-09-13T20:51:28.117Z,11.99
2022-09-13T20:53:58.137Z,12.02
2022-09-13T20:56:25.117Z,12.04
2022-09-13T20:58:57.731Z,12.02
2022-09-13T21:01:25.487Z,11.97
2022-09-13T21:03:53.941Z,11.97
2022-09-13T21:06:26.270Z,11.96
2022-09-13T21:08:54.025Z,11.92
2022-09-13T21:11:32.476Z,11.87
2022-09-13T21:14:03.027Z,11.84
2022-09-13T21:16:35.002Z,11.89
2022-09-13T21:19:01.877Z,11.93
2022-09-13T21:21:38.562Z,11.93
2022-09-13T21:24:09.859Z,11.92
2022-09-13T21:26:42.235Z,11.89
2022-09-13T21:29:10.175Z,11.89
2022-09-13T21:31:38.269Z,11.85
2022-09-13T21:34:08.597Z,11.80
2022-09-13T21:36:35.811Z,11.79
2022-09-13T21:39:03.496Z,11.75
2022-09-13T21:41:30.847Z,11.71
2022-09-13T21:44:00.132Z,11.67
2022-09-13T21:46:31.278Z,11.65
2022-09-13T21:48:59.945Z,11.57
2022-09-13T21:51:31.344Z,11.57
2022-09-13T21:53:59.538Z,11.58
2022-09-13T21:56:28.627Z,11.59
2022-09-13T21:58:55.269Z,11.54
2022-09-13T22:01:23.504Z,11.54
2022-09-13T22:03:51.949Z,11.53
2022-09-13T22:06:20.519Z,11.53
2022-09-13T22:08:58.903Z,11.49
2022-09-13T22:11:28.993Z,11.48
2022-09-13T22:13:57.252Z,11.50
2022-09-13T22:16:35.721Z,11.48
2022-09-13T22:19:09.061Z,11.48
2022-09-13T22:21:38.982Z,11.50
2022-09-13T22:24:07.960Z,11.49
2022-09-13T22:26:39.625Z,11.46
2022-09-13T22:29:07.682Z,11.38
2022-09-13T22:31:37.531Z,11.32
2022-09-13T22:34:05.097Z,11.33
2022-09-13T22:36:31.958Z,11.33
2022-09-13T22:38:59.087Z,11.37
2022-09-13T22:41:28.415Z,11.36
2022-09-13T22:43:55.492Z,11.36
2022-09-13T22:46:28.736Z,11.32
2022-09-13T22:48:56.300Z,11.33
2022-09-13T22:51:23.859Z,11.32
2022-09-13T22:53:52.002Z,11.29
2022-09-13T22:56:30.291Z,11.23
2022-09-13T22:59:00.863Z,11.18
2022-09-13T23:01:29.151Z,11.16
2022-09-13T23:03:56.562Z,11.18
2022-09-13T23:06:25.534Z,11.21
2022-09-13T23:08:53.761Z,11.25
2022-09-13T23:11:27.093Z,11.25
2022-09-13T23:13:58.351Z,11.26
2022-09-13T23:16:33.881Z,11.29
2022-09-13T23:19:00.803Z,11.35
2022-09-13T23:21:31.103Z,11.29
2022-09-13T23:24:00.848Z,11.31
2022-09-13T23:26:28.495Z,11.34
2022-09-13T23:28:57.916Z,11.39
2022-09-13T23:31:27.462Z,11.42
2022-09-13T23:33:56.879Z,11.41
2022-09-13T23:36:27.100Z,11.46
2022-09-13T23:38:56.191Z,11.43
2022-09-13T23:41:25.985Z,11.35
2022-09-13T23:43:53.811Z,11.36
2022-09-13T23:46:21.158Z,11.35
2022-09-13T23:48:48.191Z,11.38
2022-09-13T23:51:20.333Z,11.39
2022-09-13T23:53:47.367Z,11.39
2022-09-13T23:56:14.272Z,11.39
2022-09-13T23:58:40.954Z,11.39
